http://www.schuttertalwetter.de (Christian Eisenberg)
Wetterdaten: aktuell Mittwoch, 18.07.2018 18:00
Datum Zeit Temp. A. Luftdruck Regen Wind Richtung Richtung Sonnenschein Solar Windben
18.07.2018 18:00 28,8 C 1014,7 hPa 0,0 l/m 4,7 km/h (1 Bft) NW 311 60 min 450 W/m 8,0 km/h (2 Bft)
18.07.2018 17:00 29,2 C 1015,0 hPa 0,0 l/m 8,0 km/h (2 Bft) NW 315 60 min 594 W/m 14,5 km/h (3 Bft)
18.07.2018 15:55 28,7 C 1015,3 hPa 0,0 l/m 8,0 km/h (2 Bft) N 360 60 min 708 W/m 19,3 km/h (3 Bft)
18.07.2018 14:50 28,3 C 1015,6 hPa 0,0 l/m 6,4 km/h (2 Bft) NW 315 60 min 800 W/m 12,9 km/h (3 Bft)
18.07.2018 13:45 28,0 C 1016,1 hPa 0,0 l/m 3,2 km/h (1 Bft) N-NW 337 60 min 870 W/m 9,7 km/h (2 Bft)
18.07.2018 12:40 26,8 C 1016,5 hPa 0,0 l/m 6,4 km/h (2 Bft) NW 315 60 min 863 W/m 14,5 km/h (3 Bft)
18.07.2018 11:35 25,9 C 1016,9 hPa 0,0 l/m 6,4 km/h (2 Bft) NW 315 60 min 724 W/m 11,3 km/h (2 Bft)
18.07.2018 10:30 24,6 C 1017,1 hPa 0,0 l/m 1,6 km/h (1 Bft) N 360 60 min 608 W/m 6,4 km/h (2 Bft)
18.07.2018 09:25 21,5 C 1017,3 hPa 0,0 l/m 1,6 km/h (1 Bft) NW 315 60 min 462 W/m 4,8 km/h (1 Bft)
18.07.2018 08:20 17,3 C 1017,4 hPa 0,0 l/m 0,0 km/h (0 Bft) N 0 40 min 292 W/m 0,0 km/h (0 Bft)
18.07.2018 07:15 13,7 C 1017,3 hPa 0,0 l/m 0,0 km/h (0 Bft) N 0 0 min 46 W/m 0,0 km/h (0 Bft)
18.07.2018 06:10 12,9 C 1017,5 hPa 0,0 l/m 0,0 km/h (0 Bft) N 0 0 min 14 W/m 0,0 km/h (0 Bft)
18.07.2018 05:05 13,4 C 1017,4 hPa 0,0 l/m 0,0 km/h (0 Bft) O-SO 112 0 min 0 W/m 1,6 km/h (1 Bft)
18.07.2018 04:00 14,1 C 1017,2 hPa 0,0 l/m 0,0 km/h (0 Bft) N 0 0 min 0 W/m 0,0 km/h (0 Bft)
18.07.2018 02:55 15,1 C 1017,2 hPa 0,0 l/m 0,0 km/h (0 Bft) O-SO 112 0 min 0 W/m 4,8 km/h (1 Bft)
18.07.2018 01:50 15,8 C 1017,1 hPa 0,0 l/m 3,2 km/h (1 Bft) S-SO 157 0 min 0 W/m 6,4 km/h (2 Bft)
18.07.2018 00:45 16,9 C 1017,1 hPa 0,0 l/m 3,2 km/h (1 Bft) S 180 0 min 0 W/m 4,8 km/h (1 Bft)
17.07.2018 23:40 17,9 C 1017,0 hPa 0,0 l/m 8,0 km/h (2 Bft) S-SO 157 0 min 0 W/m 12,9 km/h (3 Bft)
17.07.2018 22:35 18,2 C 1016,7 hPa 0,0 l/m 1,6 km/h (1 Bft) S 180 0 min 0 W/m 4,8 km/h (1 Bft)
17.07.2018 21:30 19,2 C 1015,9 hPa 0,0 l/m 4,8 km/h (1 Bft) SO 135 0 min 0 W/m 8,0 km/h (2 Bft)
17.07.2018 20:25 21,4 C 1015,3 hPa 0,0 l/m 1,6 km/h (1 Bft) S 180 0 min 46 W/m 4,8 km/h (1 Bft)
17.07.2018 19:20 24,6 C 1015,1 hPa 0,0 l/m 3,2 km/h (1 Bft) S-SO 157 0 min 146 W/m 9,7 km/h (2 Bft)
17.07.2018 19:00 24,7 C 1015,1 hPa 0,0 l/m 0,0 km/h (0 Bft) W 270 0 min 132 W/m 3,2 km/h (1 Bft)
_ Min-Zeit 06:10 18:00 - 10:00 - - - - 08:40
Minimum _ 12,9 C 1014,7 hPa - 0,0 km/h (0 Bft) - - - - 0,0 km/h (0 Bft)
_ Max-Zeit 16:55 08:30 18:00 23:45 - - 17:55 13:50 15:50
Maximum _ 29,3 C 1017,5 hPa 0,0 l/m 11,3 km/h
S (2 Bft)
- - 5 min 870 W/m 20,9 km/h
NW (4 Bft)
Durchschnitt _ 21,1 C 1016,4 hPa #0,0 l/m 2,6 km/h (1 Bft) NW - #10:20 h 545 W/m 6,3 km/h (2 Bft)